Dunwoody, Georgia
Current Conditions -  °F | °C
As of 3:53 PM on Saturday 25 Oct 2014 (Local Time) from KPDK Reporting Station
Clear Clear  
Wind Chill: 24°   Ceiling: Unl
Heat Index: 24°   Visibility: 10mi
Dew Point:   Wind: 7mph
Humidity: 34%   Direction: 280°W
Pressure: 30.01"   Gusts: NA
Location:  33.95°N, 84.33°W
Report Text: KPDK 251953Z AUTO 28006KT 10SM CLR 24/07 A3001 RMK AO2 SLP158 T02390072 TSNO
Loading
Personal Weather Stations






























Interactive Weather Map
Tropical Storm Tracking
New forecast layout! Learn more

10-Day Weather Forecast

Advertisements
Track Severe Weather on mobile